Capitol Logistics 994


FMMI
Ivato International Airport
Antananarivo, MG
FMEE
Roland Garros
St. Denis, FR

Activity Log

Date Flight Route Aircraft Duration
03/30/2020 CPX994 TE1W TE UA401 UNKIK UNKI1R B763 1h 38m
12/20/2019 CPX994 TIGUR A401 UNKIK UNKIK1R B763 1h 28m
11/17/2019 CPX994 Not Available B763 1h 23m

Route Details

Aircraft Information
Primary: Boeing 767-300BDSF
Backup: Not Available
Route Data
Distance: 471nm
Sched. Duration: 1h 25m
Avg. Duration: 1h 29m (+5m)
Times Flown: 3
Recm'd Route: Not Available
Planned Altitude: 33,000ft
Origin Wx: FMMI 051430Z 08005KT 9999 FEW017 BKN023 17/14 Q1023 NOSIG
Dest. Wx: FMEE 051430Z AUTO 12008KT 9999 BKN082 22/13 Q1020 NOSIG
Notes:

Financial History
Total Freight: 192,236lbs
Average Load: 64,079lbs/flt
Fuel Used: 39,864lbs
Avg. Fuel Used: 13,288lbs/flt
Fuel Expense: $31,891
Avg. Fuel Expense: $10,630
Avg. Fuel Cost: $0.80/lbs
Total Gross Income: $1,887,758
Pilot Pay: $567
Total Expenses: $204,034
Total Revenue: $1,650,955
Average Revenue: $629,252.52